aviador You're here:

SCVD Decoded Metar

VALDIVIA in CHILE
Report Time2018-02-18 21:00:00
UTC Time2018-02-18 22:01:28
Flight Rules vfr VFR
Wind260° at 10 kt
W.Decomp.*RWY 17: 1.4 kt HW 9.9 kt RCW
W.Rank260° ranks 13
Current wind is above 260° avg. (6.5)
Visibility9999 m
Phenomena:N/A
Clouds:Scattered 040 Hf
Expected CloudBase > 3,600 ft AGL from Temp-Dew spread
CeilingNone
Temp22°C (ISA +7)
Dew Point13°C (57% RH)
AAT19.4°C
QNH1012 hPa
Density Alt1,106 ft
Elevation46 ft
Report Wrong Elevation
Raw Report
SCVD 182100Z 26010KT 200V290 9999 SCT040 22/13 Q1012=

Extra information for SCVD:More info

Metar Taf Metar & Taf Last 4 Metars F.Rules Stats Wind Profile Meteogram Temp Stats Airport Information Weather charts Add Link Nearby VenuesMetar ALERT Operation Metar Decoded Social comments